createdAt,value
2023-01-09T00:01:27.682Z,98901.22
2023-01-09T00:03:56.273Z,98892.84
2023-01-09T00:06:24.423Z,98894.16
2023-01-09T00:08:52.625Z,98894.50
2023-01-09T00:11:20.711Z,98893.50
2023-01-09T00:13:49.035Z,98889.97
2023-01-09T00:16:17.860Z,98898.47
2023-01-09T00:18:47.612Z,98912.16
2023-01-09T00:21:16.328Z,98905.78
2023-01-09T00:23:44.263Z,98891.75
2023-01-09T00:26:14.916Z,98904.84
2023-01-09T00:28:42.897Z,98893.22
2023-01-09T00:31:11.860Z,98904.44
2023-01-09T00:33:45.942Z,98970.66
2023-01-09T00:36:15.854Z,98930.41
2023-01-09T00:38:43.808Z,98932.53
2023-01-09T00:41:17.982Z,98926.50
2023-01-09T00:43:48.346Z,98928.22
2023-01-09T00:46:18.523Z,98923.69
2023-01-09T00:48:49.224Z,98914.66
2023-01-09T00:51:20.955Z,98947.63
2023-01-09T00:53:51.048Z,98940.16
2023-01-09T00:56:21.866Z,98935.00
2023-01-09T00:58:50.573Z,98941.47
2023-01-09T01:01:18.652Z,98932.28
2023-01-09T01:03:46.941Z,98939.28
2023-01-09T01:06:32.187Z,98941.31
2023-01-09T01:09:01.547Z,98948.28
2023-01-09T01:11:29.557Z,98997.00
2023-01-09T01:13:57.463Z,98988.69
2023-01-09T01:16:25.465Z,98981.41
2023-01-09T01:18:53.753Z,98979.75
2023-01-09T01:21:21.668Z,98988.44
2023-01-09T01:23:49.765Z,99001.94
2023-01-09T01:26:19.053Z,99008.81
2023-01-09T01:28:46.976Z,99027.50
2023-01-09T01:31:19.424Z,99016.31
2023-01-09T01:33:47.804Z,99004.16
2023-01-09T01:36:17.979Z,99035.88
2023-01-09T01:38:47.656Z,99027.88
2023-01-09T01:41:29.745Z,99013.03
2023-01-09T01:44:01.360Z,99035.56
2023-01-09T01:46:29.699Z,99033.38
2023-01-09T01:49:02.678Z,99027.53
2023-01-09T01:51:33.640Z,99029.53
2023-01-09T01:54:08.127Z,99026.69
2023-01-09T01:56:39.187Z,99034.38
2023-01-09T01:59:13.039Z,99051.75
2023-01-09T02:01:44.979Z,99091.50
2023-01-09T02:04:14.078Z,99073.97
2023-01-09T02:06:43.758Z,99057.44
2023-01-09T02:09:15.404Z,99090.13
2023-01-09T02:11:46.900Z,99060.59
2023-01-09T02:14:17.531Z,99059.38
2023-01-09T02:16:53.792Z,99098.97
2023-01-09T02:19:49.044Z,99096.81
2023-01-09T02:22:30.684Z,99089.28
2023-01-09T02:25:27.791Z,99104.97
2023-01-09T02:28:30.890Z,99106.63
2023-01-09T02:31:07.761Z,99109.97
2023-01-09T02:33:45.772Z,99115.16
2023-01-09T02:36:23.790Z,99154.38
2023-01-09T02:39:00.922Z,99150.66
2023-01-09T02:41:37.427Z,99145.97
2023-01-09T02:44:17.842Z,99139.72
2023-01-09T02:46:47.598Z,99136.34
2023-01-09T02:49:18.619Z,99141.56
2023-01-09T02:51:53.477Z,99159.22
2023-01-09T02:54:29.761Z,99181.56
2023-01-09T02:57:23.248Z,99160.53
2023-01-09T03:00:09.843Z,99160.72
2023-01-09T03:02:50.318Z,99184.38
2023-01-09T03:05:24.763Z,99189.13
2023-01-09T03:08:00.723Z,99189.91
2023-01-09T03:10:39.875Z,99210.66
2023-01-09T03:13:13.128Z,99203.91
2023-01-09T03:15:45.974Z,99205.44
2023-01-09T03:18:17.255Z,99217.09
2023-01-09T03:20:45.703Z,99240.25
2023-01-09T03:23:13.583Z,99203.66
2023-01-09T03:25:41.540Z,99210.19
2023-01-09T03:28:19.544Z,99201.06
2023-01-09T03:30:47.481Z,99219.78
2023-01-09T03:33:16.991Z,99218.47
2023-01-09T03:35:45.056Z,99218.34
2023-01-09T03:38:13.038Z,99219.22
2023-01-09T03:40:43.322Z,99242.31
2023-01-09T03:43:11.328Z,99223.94
2023-01-09T03:45:39.299Z,99231.50
2023-01-09T03:48:07.743Z,99219.00
2023-01-09T03:50:37.215Z,99233.69
2023-01-09T03:53:05.180Z,99246.06
2023-01-09T03:55:33.134Z,99246.38
2023-01-09T03:58:01.048Z,99282.03
2023-01-09T04:00:29.040Z,99243.03
2023-01-09T04:02:56.919Z,99299.34
2023-01-09T04:05:24.840Z,99257.88
2023-01-09T04:07:54.529Z,99246.84
2023-01-09T04:10:22.435Z,99244.38
2023-01-09T04:12:50.457Z,99254.97
2023-01-09T04:15:18.935Z,99243.66
2023-01-09T04:17:46.941Z,99245.03
2023-01-09T04:20:15.131Z,99242.97
2023-01-09T04:22:43.159Z,99268.00
2023-01-09T04:25:12.763Z,99286.47
2023-01-09T04:27:40.845Z,99276.69
2023-01-09T04:30:10.188Z,99285.38
2023-01-09T04:32:38.150Z,99278.13
2023-01-09T04:35:07.221Z,99285.66
2023-01-09T04:37:36.269Z,99313.53
2023-01-09T04:40:06.117Z,99297.72
2023-01-09T04:42:35.938Z,99285.78
2023-01-09T04:45:04.078Z,99284.97
2023-01-09T04:47:32.716Z,99300.03
2023-01-09T04:50:00.763Z,99337.16
2023-01-09T04:52:29.044Z,99307.13
2023-01-09T04:54:57.127Z,99298.50
2023-01-09T04:57:25.070Z,99324.75
2023-01-09T04:59:54.492Z,99316.72
2023-01-09T05:02:22.355Z,99295.00
2023-01-09T05:04:50.253Z,99303.41
2023-01-09T05:07:18.217Z,99278.31
2023-01-09T05:09:46.456Z,99310.16
2023-01-09T05:12:14.415Z,99325.69
2023-01-09T05:14:42.380Z,99322.84
2023-01-09T05:17:11.780Z,99330.72
2023-01-09T05:19:40.124Z,99345.56
2023-01-09T05:22:08.085Z,99330.22
2023-01-09T05:24:36.017Z,99327.56
2023-01-09T05:27:03.975Z,99354.94
2023-01-09T05:29:31.989Z,99376.88
2023-01-09T05:32:00.340Z,99358.69
2023-01-09T05:34:29.853Z,99366.41
2023-01-09T05:36:57.879Z,99375.31
2023-01-09T05:39:26.017Z,99381.16
2023-01-09T05:41:53.864Z,99381.50
2023-01-09T05:44:22.344Z,99383.03
2023-01-09T05:46:50.791Z,99398.25
2023-01-09T05:49:18.773Z,99408.75
2023-01-09T05:51:48.090Z,99422.47
2023-01-09T05:54:16.054Z,99434.97
2023-01-09T05:56:43.923Z,99418.00
2023-01-09T05:59:11.850Z,99406.91
2023-01-09T06:01:39.773Z,99416.56
2023-01-09T06:04:07.800Z,99419.53
2023-01-09T06:06:35.817Z,99430.91
2023-01-09T06:09:05.275Z,99437.41
2023-01-09T06:11:34.454Z,99438.97
2023-01-09T06:14:02.561Z,99465.22
2023-01-09T06:16:31.165Z,99447.72
2023-01-09T06:18:59.184Z,99461.97
2023-01-09T06:21:29.483Z,99479.91
2023-01-09T06:23:57.476Z,99456.50
2023-01-09T06:26:28.100Z,99523.72
2023-01-09T06:28:56.776Z,99467.56
2023-01-09T06:31:25.799Z,99517.31
2023-01-09T06:33:54.055Z,99472.91
2023-01-09T06:36:22.639Z,99510.34
2023-01-09T06:38:50.811Z,99496.66
2023-01-09T06:41:19.191Z,99540.47
2023-01-09T06:43:48.546Z,99512.75
2023-01-09T06:46:16.576Z,99516.75
2023-01-09T06:48:44.769Z,99513.75
2023-01-09T06:51:12.679Z,99535.84
2023-01-09T06:53:40.640Z,99546.38
2023-01-09T06:56:08.780Z,99556.75
2023-01-09T06:58:36.766Z,99550.53
2023-01-09T07:01:06.495Z,99562.94
2023-01-09T07:03:34.616Z,99558.91
2023-01-09T07:06:02.581Z,99562.94
2023-01-09T07:08:31.142Z,99569.59
2023-01-09T07:10:59.126Z,99573.28
2023-01-09T07:13:27.108Z,99600.59
2023-01-09T07:15:55.049Z,99602.13
2023-01-09T07:18:24.604Z,99583.19
2023-01-09T07:20:52.628Z,99627.34
2023-01-09T07:23:20.528Z,99634.69
2023-01-09T07:25:48.635Z,99626.97
2023-01-09T07:28:16.679Z,99644.38
2023-01-09T07:30:44.657Z,99656.75
2023-01-09T07:33:12.577Z,99655.44
2023-01-09T07:35:42.080Z,99644.59
2023-01-09T07:38:10.153Z,99686.09
2023-01-09T07:40:38.439Z,99676.75
2023-01-09T07:43:06.538Z,99680.13
2023-01-09T07:45:34.474Z,99700.81
2023-01-09T07:48:02.383Z,99692.97
2023-01-09T07:50:30.358Z,99704.34
2023-01-09T07:52:59.794Z,99716.34
2023-01-09T07:55:27.892Z,99721.75
2023-01-09T07:57:55.800Z,99740.47
2023-01-09T08:00:23.903Z,99743.88
2023-01-09T08:02:55.243Z,99754.84
2023-01-09T08:05:23.338Z,99750.88
2023-01-09T08:07:52.733Z,99753.84
2023-01-09T08:10:22.266Z,99783.06
2023-01-09T08:12:50.899Z,99846.41
2023-01-09T08:15:18.983Z,99803.28
2023-01-09T08:17:47.738Z,99818.34
2023-01-09T08:20:17.535Z,99836.09
2023-01-09T08:22:49.792Z,99815.38
2023-01-09T08:25:18.840Z,99803.69
2023-01-09T08:27:48.337Z,99841.66
2023-01-09T08:30:16.838Z,99839.00
2023-01-09T08:32:44.913Z,99831.38
2023-01-09T08:35:12.891Z,99869.13
2023-01-09T08:37:40.892Z,99865.91
2023-01-09T08:40:10.483Z,99865.19
2023-01-09T08:42:55.823Z,99878.56
2023-01-09T08:45:42.880Z,99899.06
2023-01-09T08:48:11.616Z,99910.19
2023-01-09T08:50:39.528Z,99888.03
2023-01-09T08:53:07.464Z,99892.38
2023-01-09T08:55:35.455Z,99910.25
2023-01-09T08:58:03.516Z,99919.22
2023-01-09T09:00:33.057Z,99931.34
2023-01-09T09:03:02.342Z,99945.97
2023-01-09T09:05:32.556Z,99922.56
2023-01-09T09:08:00.749Z,99960.03
2023-01-09T09:10:30.116Z,99932.38
2023-01-09T09:12:59.964Z,99937.72
2023-01-09T09:15:29.389Z,99952.94
2023-01-09T09:18:00.732Z,99947.19
2023-01-09T09:20:31.440Z,99970.44
2023-01-09T09:22:59.717Z,99969.66
2023-01-09T09:28:11.164Z,99986.72
2023-01-09T09:30:40.210Z,99965.09
2023-01-09T09:33:10.049Z,99980.34
2023-01-09T09:35:38.241Z,99979.25
2023-01-09T09:38:06.579Z,99979.06
2023-01-09T09:41:31.214Z,99974.44
2023-01-09T09:44:33.225Z,100006.94
2023-01-09T09:47:13.303Z,99986.31
2023-01-09T09:50:03.643Z,100005.75
2023-01-09T09:52:43.821Z,100022.94
2023-01-09T09:55:20.058Z,100025.47
2023-01-09T09:57:49.641Z,100022.69
2023-01-09T10:00:21.663Z,100025.09
2023-01-09T10:02:54.409Z,100047.16
2023-01-09T10:05:30.644Z,100055.47
2023-01-09T10:08:15.532Z,100047.16
2023-01-09T10:10:50.836Z,100062.06
2023-01-09T10:13:39.082Z,100087.97
2023-01-09T10:16:17.847Z,100080.06
2023-01-09T10:19:00.587Z,100119.75
2023-01-09T10:21:37.920Z,100130.72
2023-01-09T10:24:30.841Z,100162.25
2023-01-09T10:27:03.413Z,100119.31
2023-01-09T10:29:46.469Z,100125.09
2023-01-09T10:32:31.762Z,100156.91
2023-01-09T10:35:15.785Z,100142.53
2023-01-09T10:37:47.782Z,100133.53
2023-01-09T10:40:21.475Z,100178.56
2023-01-09T10:42:55.201Z,100176.88
2023-01-09T10:45:26.985Z,100154.50
2023-01-09T10:48:01.973Z,100162.81
2023-01-09T10:50:35.585Z,100190.41
2023-01-09T10:53:17.793Z,100174.38
2023-01-09T10:55:48.376Z,100169.00
2023-01-09T10:58:18.536Z,100179.56
2023-01-09T11:00:47.835Z,100183.22
2023-01-09T11:03:17.640Z,100190.25
2023-01-09T11:05:51.801Z,100204.47
2023-01-09T11:08:28.699Z,100203.34
2023-01-09T11:10:58.430Z,100205.00
2023-01-09T11:13:29.577Z,100205.41
2023-01-09T11:16:05.763Z,100225.81
2023-01-09T11:18:35.250Z,100222.88
2023-01-09T11:21:16.407Z,100232.00
2023-01-09T11:23:46.064Z,100234.03
2023-01-09T11:26:24.708Z,100228.09
2023-01-09T11:29:12.053Z,100221.50
2023-01-09T11:31:41.998Z,100224.59
2023-01-09T11:34:17.854Z,100246.59
2023-01-09T11:36:46.373Z,100226.28
2023-01-09T11:39:25.024Z,100246.25
2023-01-09T11:41:57.254Z,100233.97
2023-01-09T11:44:26.111Z,100255.66
2023-01-09T11:46:54.348Z,100278.22
2023-01-09T11:49:25.144Z,100265.38
2023-01-09T11:52:16.217Z,100264.25
2023-01-09T11:54:50.441Z,100274.13
2023-01-09T11:57:19.005Z,100287.94
2023-01-09T11:59:47.147Z,100260.03
2023-01-09T12:02:46.282Z,100267.97
2023-01-09T12:05:26.999Z,100276.13
2023-01-09T12:08:20.098Z,100283.19
2023-01-09T12:11:20.245Z,100280.34
2023-01-09T12:14:00.883Z,100324.41
2023-01-09T12:16:36.290Z,100301.56
2023-01-09T12:19:19.529Z,100323.81
2023-01-09T12:21:55.064Z,100360.47
2023-01-09T12:24:45.570Z,100333.00
2023-01-09T12:27:28.593Z,100315.38
2023-01-09T12:30:17.036Z,100318.63
2023-01-09T12:32:58.790Z,100342.16
2023-01-09T12:35:35.249Z,100354.03
2023-01-09T12:38:38.835Z,100345.00
2023-01-09T12:41:26.239Z,100353.59
2023-01-09T12:44:10.232Z,100331.34
2023-01-09T12:46:47.599Z,100348.09
2023-01-09T12:49:31.581Z,100327.91
2023-01-09T12:52:07.189Z,100342.97
2023-01-09T12:54:41.292Z,100348.88
2023-01-09T12:57:24.627Z,100382.03
2023-01-09T12:59:58.400Z,100379.53
2023-01-09T13:02:32.673Z,100371.59
2023-01-09T13:05:03.888Z,100403.22
2023-01-09T13:07:38.719Z,100376.88
2023-01-09T13:10:17.872Z,100395.47
2023-01-09T13:12:48.285Z,100394.75
2023-01-09T13:15:41.054Z,100409.28
2023-01-09T13:18:13.807Z,100374.06
2023-01-09T13:20:46.774Z,100397.59
2023-01-09T13:23:23.880Z,100393.50
2023-01-09T13:25:54.659Z,100400.16
2023-01-09T13:28:28.225Z,100416.31
2023-01-09T13:31:32.185Z,100416.31
2023-01-09T13:34:04.598Z,100423.94
2023-01-09T13:36:39.653Z,100446.63
2023-01-09T13:39:08.372Z,100463.84
2023-01-09T13:42:05.769Z,100451.00
2023-01-09T13:44:36.599Z,100458.59
2023-01-09T13:47:06.749Z,100444.94
2023-01-09T13:50:03.299Z,100465.38
2023-01-09T13:52:37.711Z,100492.47
2023-01-09T13:55:31.894Z,100482.59
2023-01-09T13:58:24.360Z,100495.16
2023-01-09T14:00:56.151Z,100535.63
2023-01-09T14:03:29.462Z,100531.09
2023-01-09T14:06:21.680Z,100545.34
2023-01-09T14:08:51.864Z,100534.78
2023-01-09T14:11:22.840Z,100547.91
2023-01-09T14:14:03.587Z,100536.44
2023-01-09T14:16:32.984Z,100560.97
2023-01-09T14:19:08.274Z,100555.03
2023-01-09T14:21:48.529Z,100555.59
2023-01-09T14:24:23.507Z,100592.25
2023-01-09T14:26:57.315Z,100602.69
2023-01-09T14:30:17.352Z,100584.09
2023-01-09T14:32:46.625Z,100588.03
2023-01-09T14:35:20.948Z,100568.31
2023-01-09T14:38:01.042Z,100586.47
2023-01-09T14:40:29.542Z,100583.38
2023-01-09T14:43:05.958Z,100611.44
2023-01-09T14:45:38.050Z,100612.19
2023-01-09T14:48:11.620Z,100627.28
2023-01-09T14:50:46.576Z,100597.94
2023-01-09T14:53:17.917Z,100600.06
2023-01-09T14:55:53.216Z,100616.84
2023-01-09T14:58:24.133Z,100613.47
2023-01-09T15:01:04.493Z,100641.50
2023-01-09T15:03:38.456Z,100634.00
2023-01-09T15:06:16.520Z,100631.59
2023-01-09T15:08:46.547Z,100654.13
2023-01-09T15:11:15.683Z,100658.38
2023-01-09T15:13:48.640Z,100663.56
2023-01-09T15:16:20.584Z,100655.66
2023-01-09T15:18:51.373Z,100646.94
2023-01-09T15:21:24.424Z,100664.38
2023-01-09T15:23:52.471Z,100646.06
2023-01-09T15:26:30.402Z,100642.09
2023-01-09T15:29:03.425Z,100654.94
2023-01-09T15:31:31.687Z,100662.66
2023-01-09T15:34:01.696Z,100687.63
2023-01-09T15:36:31.699Z,100682.41
2023-01-09T15:39:00.737Z,100670.72
2023-01-09T15:41:48.274Z,100684.09
2023-01-09T15:44:20.112Z,100670.56
2023-01-09T15:46:50.209Z,100675.31
2023-01-09T15:49:19.923Z,100697.84
2023-01-09T15:51:50.740Z,100694.47
2023-01-09T15:54:22.066Z,100695.03
2023-01-09T15:56:50.028Z,100699.22
2023-01-09T15:59:27.292Z,100709.94
2023-01-09T16:02:15.203Z,100703.72
2023-01-09T16:04:43.539Z,100700.34
2023-01-09T16:07:17.072Z,100721.75
2023-01-09T16:09:47.579Z,100709.72
2023-01-09T16:12:21.202Z,100709.16
2023-01-09T16:15:08.566Z,100724.25
2023-01-09T16:17:37.795Z,100725.63
2023-01-09T16:20:15.715Z,100736.63
2023-01-09T16:22:55.388Z,100718.63
2023-01-09T16:25:29.652Z,100748.78
2023-01-09T16:28:21.999Z,100756.94
2023-01-09T16:30:55.337Z,100744.28
2023-01-09T16:33:26.051Z,100750.22
2023-01-09T16:35:54.680Z,100759.63
2023-01-09T16:38:24.895Z,100740.34
2023-01-09T16:41:20.834Z,100760.19
2023-01-09T16:43:49.422Z,100781.50
2023-01-09T16:46:19.689Z,100771.88
2023-01-09T16:48:47.863Z,100773.56
2023-01-09T16:51:18.155Z,100785.03
2023-01-09T16:53:48.253Z,100767.31
2023-01-09T16:56:19.969Z,100758.88
2023-01-09T16:58:47.973Z,100777.91
2023-01-09T17:01:16.414Z,100760.25
2023-01-09T17:03:47.854Z,100771.56
2023-01-09T17:06:27.992Z,100783.13
2023-01-09T17:09:00.188Z,100782.97
2023-01-09T17:11:31.611Z,100785.78
2023-01-09T17:13:59.939Z,100802.00
2023-01-09T17:16:29.060Z,100795.91
2023-01-09T17:18:57.535Z,100796.03
2023-01-09T17:21:28.909Z,100801.63
2023-01-09T17:24:16.695Z,100808.69
2023-01-09T17:27:05.317Z,100795.81
2023-01-09T17:29:35.922Z,100805.81
2023-01-09T17:32:04.682Z,100823.44
2023-01-09T17:34:33.767Z,100826.94
2023-01-09T17:37:04.299Z,100822.34
2023-01-09T17:39:34.168Z,100847.88
2023-01-09T17:42:02.101Z,100806.28
2023-01-09T17:44:30.118Z,100822.59
2023-01-09T17:47:00.575Z,100844.00
2023-01-09T17:49:28.674Z,100835.25
2023-01-09T17:51:56.690Z,100834.78
2023-01-09T17:54:24.588Z,100849.00
2023-01-09T17:56:54.436Z,100848.38
2023-01-09T17:59:22.532Z,100851.81
2023-01-09T18:01:50.563Z,100852.78
2023-01-09T18:04:18.536Z,100858.38
2023-01-09T18:06:48.358Z,100852.88
2023-01-09T18:09:18.527Z,100865.41
2023-01-09T18:11:48.337Z,100871.03
2023-01-09T18:14:18.060Z,100866.16
2023-01-09T18:16:46.215Z,100869.53
2023-01-09T18:19:14.299Z,100871.34
2023-01-09T18:21:42.196Z,100863.66
2023-01-09T18:24:13.423Z,100902.59
2023-01-09T18:26:41.304Z,100882.88
2023-01-09T18:29:11.494Z,100896.00
2023-01-09T18:31:40.907Z,100889.19
2023-01-09T18:34:11.106Z,100904.03
2023-01-09T18:36:39.412Z,100901.59
2023-01-09T18:39:08.797Z,100902.34
2023-01-09T18:41:36.854Z,100896.84
2023-01-09T18:44:04.902Z,100900.38
2023-01-09T18:46:33.123Z,100898.44
2023-01-09T18:49:04.333Z,100907.19
2023-01-09T18:51:33.450Z,100915.06
2023-01-09T18:54:01.628Z,100913.84
2023-01-09T18:56:29.801Z,100934.28
2023-01-09T18:58:59.021Z,100918.56
2023-01-09T19:01:30.190Z,100928.06
2023-01-09T19:03:59.497Z,100924.41
2023-01-09T19:06:31.927Z,100938.31
2023-01-09T19:09:00.997Z,100939.84
2023-01-09T19:11:33.236Z,100951.88
2023-01-09T19:14:01.350Z,100943.25
2023-01-09T19:16:29.327Z,100950.31
2023-01-09T19:18:58.276Z,100947.66
2023-01-09T19:21:29.749Z,100953.63
2023-01-09T19:23:58.863Z,100952.91
2023-01-09T19:26:28.896Z,100991.84
2023-01-09T19:28:57.886Z,100952.63
2023-01-09T19:31:28.305Z,100944.16
2023-01-09T19:33:56.845Z,100947.56
2023-01-09T19:36:24.999Z,100950.34
2023-01-09T19:38:58.463Z,100945.84
2023-01-09T19:41:26.629Z,100986.41
2023-01-09T19:43:54.662Z,100967.53
2023-01-09T19:46:26.490Z,100958.19
2023-01-09T19:48:57.064Z,100956.59
2023-01-09T19:51:25.578Z,100955.75
2023-01-09T19:53:55.247Z,100968.03
2023-01-09T19:56:29.668Z,100963.91
2023-01-09T19:59:02.959Z,100970.47
2023-01-09T20:01:36.051Z,100964.88
2023-01-09T20:04:07.966Z,100956.38
2023-01-09T20:06:39.274Z,100954.56
2023-01-09T20:09:07.780Z,100938.59
2023-01-09T20:11:37.283Z,100934.38
2023-01-09T20:14:05.277Z,100934.59
2023-01-09T20:16:33.423Z,100941.91
2023-01-09T20:19:04.078Z,100953.59
2023-01-09T20:21:36.043Z,100957.84
2023-01-09T20:24:06.062Z,100957.13
2023-01-09T20:26:36.774Z,100986.44
2023-01-09T20:29:05.424Z,100974.41
2023-01-09T20:31:33.452Z,100969.91
2023-01-09T20:34:01.668Z,100983.91
2023-01-09T20:36:30.678Z,100993.47
2023-01-09T20:39:00.284Z,100989.72
2023-01-09T20:41:30.751Z,101000.16
2023-01-09T20:44:01.927Z,100997.75
2023-01-09T20:46:34.103Z,101005.41
2023-01-09T20:49:03.566Z,101011.09
2023-01-09T20:51:32.179Z,101006.38
2023-01-09T20:54:00.166Z,101003.56
2023-01-09T20:56:29.656Z,101016.06
2023-01-09T20:59:00.408Z,101017.88
2023-01-09T21:01:29.157Z,101007.69
2023-01-09T21:03:59.046Z,101001.84
2023-01-09T21:06:28.662Z,100989.81
2023-01-09T21:08:56.632Z,100991.06
2023-01-09T21:11:24.830Z,101003.44
2023-01-09T21:13:53.306Z,101001.00
2023-01-09T21:16:24.759Z,100997.75
2023-01-09T21:18:54.649Z,100996.28
2023-01-09T21:21:24.226Z,101000.06
2023-01-09T21:23:54.407Z,101010.66
2023-01-09T21:26:26.164Z,101013.19
2023-01-09T21:28:56.039Z,101016.84
2023-01-09T21:31:28.895Z,101017.69
2023-01-09T21:34:03.422Z,101007.00
2023-01-09T21:36:31.850Z,101021.84
2023-01-09T21:39:00.348Z,101013.06
2023-01-09T21:41:45.798Z,101020.00
2023-01-09T21:44:32.218Z,101004.44
2023-01-09T21:47:03.608Z,101006.97
2023-01-09T21:49:35.055Z,101004.78
2023-01-09T21:52:04.843Z,101001.00
2023-01-09T21:54:33.202Z,101000.75
2023-01-09T21:57:04.200Z,101006.72
2023-01-09T21:59:32.618Z,101006.56
2023-01-09T22:02:01.941Z,100995.38
2023-01-09T22:04:30.666Z,100997.69
2023-01-09T22:07:01.391Z,100998.06
2023-01-09T22:09:29.270Z,101000.38
2023-01-09T22:11:57.709Z,101021.28
2023-01-09T22:14:26.392Z,101013.56
2023-01-09T22:16:54.478Z,101018.41
2023-01-09T22:19:24.052Z,101021.69
2023-01-09T22:21:52.220Z,101021.44
2023-01-09T22:24:21.844Z,101017.53
2023-01-09T22:26:52.546Z,101006.56
2023-01-09T22:29:21.826Z,101002.91
2023-01-09T22:31:52.615Z,101002.03
2023-01-09T22:34:23.494Z,101010.81
2023-01-09T22:36:53.086Z,101000.09
2023-01-09T22:39:21.418Z,101003.78
2023-01-09T22:41:56.926Z,100988.78
2023-01-09T22:44:24.821Z,100991.72
2023-01-09T22:46:52.783Z,101001.72
2023-01-09T22:49:20.957Z,100988.56
2023-01-09T22:51:48.939Z,100990.69
2023-01-09T22:54:19.556Z,100998.81
2023-01-09T22:56:47.492Z,101009.81
2023-01-09T22:59:15.640Z,101002.84
2023-01-09T23:01:43.945Z,101003.13
2023-01-09T23:04:13.244Z,100998.16
2023-01-09T23:06:46.102Z,100995.59
2023-01-09T23:09:18.435Z,101002.06
2023-01-09T23:12:08.712Z,101002.75
2023-01-09T23:14:38.596Z,100989.88
2023-01-09T23:17:08.701Z,100986.50
2023-01-09T23:19:37.310Z,100988.19
2023-01-09T23:22:06.021Z,100976.38
2023-01-09T23:24:35.600Z,100979.19
2023-01-09T23:27:06.843Z,100982.69
2023-01-09T23:29:38.674Z,100998.63
2023-01-09T23:32:08.014Z,101004.38
2023-01-09T23:34:36.216Z,101009.84
2023-01-09T23:37:08.940Z,101013.19
2023-01-09T23:39:38.743Z,101017.66
2023-01-09T23:42:24.095Z,101021.44
2023-01-09T23:44:52.061Z,101013.06
2023-01-09T23:47:31.313Z,101015.13
2023-01-09T23:50:01.236Z,101019.16
2023-01-09T23:52:29.201Z,101002.72
2023-01-09T23:54:58.767Z,101016.25
2023-01-09T23:57:26.716Z,101017.31
2023-01-09T23:59:54.825Z,101012.09
